Time;durP1;ratioP1;P1;durP2;ratioP2;P2;SDS_P1;SDS_P2;PMS_P1;PMS_P2;Temp;Humidity;BMP_temperature;BMP_pressure;BME280_temperature;BME280_humidity;BME280_pressure;Samples;Min_cycle;Max_cycle;Signal;HPM_P1;HPM_P2
2022/12/25 00:02:04;;;;;;;2.03;1.00;;;8.50;93.10;;;;;;5116447;28;20084;-75
2022/12/25 00:04:29;;;;;;;1.42;0.73;;;8.40;93.10;;;;;;5081781;28;20039;-76
2022/12/25 00:06:55;;;;;;;1.80;0.93;;;8.50;93.10;;;;;;5098688;28;20047;-76
2022/12/25 00:09:21;;;;;;;2.88;1.02;;;8.60;93.10;;;;;;5133792;28;20130;-77
2022/12/25 00:11:46;;;;;;;2.92;1.00;;;8.60;93.00;;;;;;5115925;28;20439;-76
2022/12/25 00:14:12;;;;;;;1.73;0.70;;;8.70;93.00;;;;;;5115976;28;20397;-77
2022/12/25 00:16:38;;;;;;;3.00;1.00;;;8.60;93.00;;;;;;5115394;28;20068;-76
2022/12/25 00:19:03;;;;;;;1.98;0.90;;;8.60;93.00;;;;;;5115228;28;20039;-76
2022/12/25 00:21:29;;;;;;;2.05;0.82;;;8.80;93.00;;;;;;5098226;28;20039;-76
2022/12/25 00:23:57;;;;;;;2.38;0.90;;;8.60;92.90;;;;;;5133778;28;20050;-77
2022/12/25 00:26:26;;;;;;;2.65;1.10;;;8.70;93.00;;;;;;5134248;28;20031;-76
2022/12/25 00:28:53;;;;;;;0.75;0.75;;;8.70;93.00;;;;;;5098399;28;20115;-76
2022/12/25 00:31:19;;;;;;;2.10;1.00;;;8.70;93.10;;;;;;5115178;28;20493;-76
2022/12/25 00:33:46;;;;;;;2.33;1.17;;;8.70;93.00;;;;;;5114547;28;20401;-76
2022/12/25 00:36:15;;;;;;;1.27;0.95;;;8.70;93.00;;;;;;5133574;28;20084;-74
2022/12/25 00:38:41;;;;;;;1.55;0.85;;;8.70;93.00;;;;;;5134064;28;20066;-77
2022/12/25 00:41:10;;;;;;;2.65;0.98;;;8.70;93.00;;;;;;5115098;28;20049;-76
2022/12/25 00:43:37;;;;;;;1.85;1.15;;;8.70;93.00;;;;;;5114978;28;20043;-77
2022/12/25 00:46:05;;;;;;;1.27;0.88;;;8.80;93.00;;;;;;5115040;28;20058;-76
2022/12/25 00:48:31;;;;;;;3.67;1.20;;;8.80;93.00;;;;;;5115078;28;20043;-77
2022/12/25 00:50:59;;;;;;;3.58;1.17;;;8.80;93.00;;;;;;5115384;28;20039;-76
2022/12/25 00:53:26;;;;;;;2.42;1.00;;;8.80;93.00;;;;;;5081293;28;20122;-77
2022/12/25 00:55:54;;;;;;;1.17;0.80;;;8.80;93.00;;;;;;5114815;28;20039;-76
2022/12/25 00:58:20;;;;;;;2.95;1.00;;;8.80;93.10;;;;;;5097928;28;20071;-76
2022/12/25 01:00:47;;;;;;;1.88;1.10;;;8.80;93.00;;;;;;5133089;28;20075;-76
2022/12/25 01:03:14;;;;;;;2.33;0.98;;;8.90;93.00;;;;;;5133427;28;20042;-76
2022/12/25 01:05:39;;;;;;;1.70;0.95;;;8.90;93.00;;;;;;5097528;28;20039;-76
2022/12/25 01:08:05;;;;;;;4.82;1.10;;;8.90;93.00;;;;;;5132897;28;20046;-76
2022/12/25 01:10:30;;;;;;;2.15;0.98;;;8.90;93.00;;;;;;5114516;28;20164;-76
2022/12/25 01:12:56;;;;;;;1.52;0.90;;;8.90;93.00;;;;;;5132657;28;20099;-77
2022/12/25 01:15:22;;;;;;;2.90;1.00;;;8.90;93.00;;;;;;5097396;28;20047;-76
2022/12/25 01:17:47;;;;;;;1.88;0.90;;;8.90;93.00;;;;;;5114315;28;20031;-76
2022/12/25 01:20:15;;;;;;;2.65;1.33;;;8.90;93.00;;;;;;5097271;28;20127;-76
2022/12/25 01:22:41;;;;;;;1.77;0.98;;;9.00;93.00;;;;;;5097378;28;20038;-76
2022/12/25 01:25:08;;;;;;;1.67;0.90;;;9.00;93.00;;;;;;5114449;28;20035;-76
2022/12/25 01:27:34;;;;;;;1.90;1.10;;;9.00;93.00;;;;;;5132614;28;20126;-76
2022/12/25 01:30:00;;;;;;;2.67;1.02;;;9.00;93.00;;;;;;5132506;28;20043;-74
2022/12/25 01:32:26;;;;;;;1.98;1.27;;;9.00;93.00;;;;;;5132652;28;20088;-76
2022/12/25 01:34:51;;;;;;;3.28;1.15;;;9.10;93.00;;;;;;5132608;28;20062;-77
2022/12/25 01:37:17;;;;;;;4.20;1.52;;;9.10;93.00;;;;;;5114154;28;20066;-76
2022/12/25 01:39:43;;;;;;;1.33;0.93;;;9.10;93.00;;;;;;5114107;28;20068;-76
2022/12/25 01:42:19;;;;;;;2.67;1.20;;;9.10;93.00;;;;;;5114214;28;20452;-77
2022/12/25 01:45:16;;;;;;;2.40;1.27;;;9.10;93.00;;;;;;5114386;27;20510;-77
2022/12/25 01:47:42;;;;;;;4.18;1.30;;;9.10;93.10;;;;;;5122278;28;20045;-76
2022/12/25 01:50:08;;;;;;;2.53;1.10;;;9.10;93.00;;;;;;5117294;28;20130;-77
2022/12/25 01:52:33;;;;;;;2.15;0.95;;;9.10;93.00;;;;;;5117734;28;20383;-76
2022/12/25 01:55:03;;;;;;;2.10;1.00;;;9.10;93.00;;;;;;5100787;28;20459;-76
2022/12/25 01:57:32;;;;;;;1.35;0.73;;;9.10;93.00;;;;;;5118081;28;20087;-76
2022/12/25 01:59:59;;;;;;;1.88;1.05;;;9.20;93.10;;;;;;5135871;28;20043;-76
2022/12/25 02:02:26;;;;;;;1.90;0.95;;;9.10;93.10;;;;;;5135831;28;20383;-76
2022/12/25 02:05:00;;;;;;;1.80;0.88;;;9.10;93.10;;;;;;5117309;28;20142;-76
2022/12/25 02:07:27;;;;;;;2.80;1.10;;;9.10;93.10;;;;;;5117650;28;20050;-76
2022/12/25 02:09:52;;;;;;;2.78;1.00;;;9.10;93.10;;;;;;5135675;28;20039;-76
2022/12/25 02:12:24;;;;;;;2.53;1.05;;;9.20;93.10;;;;;;5117098;28;20066;-76
2022/12/25 02:14:52;;;;;;;1.73;0.95;;;9.10;93.10;;;;;;5117592;28;20043;-76
2022/12/25 02:17:30;;;;;;;1.92;0.95;;;9.20;93.20;;;;;;5116928;28;20050;-77
2022/12/25 02:20:23;;;;;;;1.20;0.70;;;9.20;93.20;;;;;;5117512;28;20107;-74
2022/12/25 02:23:12;;;;;;;2.50;0.98;;;9.10;93.20;;;;;;5088647;28;20031;-76
2022/12/25 02:26:07;;;;;;;0.85;0.65;;;9.20;93.20;;;;;;5118683;28;20043;-76
2022/12/25 02:29:09;;;;;;;2.88;1.00;;;9.10;93.20;;;;;;5116946;28;20155;-76
2022/12/25 02:31:43;;;;;;;1.73;1.10;;;9.10;93.20;;;;;;5114720;28;20049;-76
2022/12/25 02:34:34;;;;;;;1.58;0.90;;;9.10;93.20;;;;;;5100392;28;20041;-76
2022/12/25 02:37:03;;;;;;;;;;;9.20;93.20;;;;;;5120894;28;20114;-76
2022/12/25 03:07:04;;;;;;;2.58;0.80;;;9.00;93.30;;;;;;5102790;28;20050;-76
2022/12/25 03:12:32;;;;;;;3.30;0.95;;;8.90;93.40;;;;;;5134411;28;20173;-77
2022/12/25 03:17:40;;;;;;;1.40;0.90;;;9.00;93.40;;;;;;5134446;28;20087;-76
2022/12/25 03:28:11;;;;;;;2.25;0.90;;;9.00;93.30;;;;;;5134314;28;20047;-76
2022/12/25 03:31:10;;;;;;;1.20;0.60;;;9.00;93.40;;;;;;5115805;28;20103;-76
2022/12/25 03:43:41;;;;;;;0.45;0.40;;;8.90;93.50;;;;;;5133930;28;20054;-76
2022/12/25 04:36:47;;;;;;;1.10;0.60;;;8.90;93.60;;;;;;5117265;28;20122;-74
2022/12/25 04:39:13;;;;;;;1.13;0.55;;;8.90;93.50;;;;;;5114933;28;20134;-76
2022/12/25 04:41:38;;;;;;;1.98;0.60;;;8.90;93.50;;;;;;5133722;28;20043;-77
2022/12/25 04:44:04;;;;;;;2.33;0.57;;;9.00;93.50;;;;;;5080886;28;20039;-76
2022/12/25 04:46:30;;;;;;;1.10;0.60;;;9.00;93.50;;;;;;5133584;28;20039;-77
2022/12/25 04:48:55;;;;;;;1.20;0.70;;;9.00;93.50;;;;;;5133235;28;20556;-77
2022/12/25 04:51:24;;;;;;;0.60;0.50;;;9.00;93.50;;;;;;5133522;28;20390;-76
2022/12/25 04:53:51;;;;;;;1.17;0.55;;;9.00;93.70;;;;;;5115480;28;20043;-77
2022/12/25 04:56:17;;;;;;;0.70;0.60;;;8.90;93.40;;;;;;5133253;28;20034;-76
2022/12/25 04:58:43;;;;;;;0.60;0.52;;;9.00;93.50;;;;;;5114741;28;20042;-76
2022/12/25 05:01:09;;;;;;;0.50;0.40;;;9.00;93.50;;;;;;5133541;28;20050;-76
2022/12/25 05:03:36;;;;;;;1.88;0.73;;;9.00;93.50;;;;;;5115628;28;20043;-76
2022/12/25 05:06:02;;;;;;;0.70;0.52;;;8.90;93.50;;;;;;5115114;28;20505;-77
2022/12/25 05:08:29;;;;;;;1.38;0.77;;;8.90;93.50;;;;;;5114826;28;20050;-76
2022/12/25 05:10:54;;;;;;;0.55;0.50;;;8.90;93.50;;;;;;5115086;28;20096;-76
2022/12/25 05:13:20;;;;;;;1.20;0.70;;;8.90;93.50;;;;;;5115136;28;20043;-76
2022/12/25 05:15:46;;;;;;;0.70;0.50;;;8.90;93.50;;;;;;5097691;28;20551;-76
2022/12/25 05:18:11;;;;;;;0.73;0.60;;;8.90;93.60;;;;;;5132926;28;20035;-76
2022/12/25 05:20:37;;;;;;;0.82;0.55;;;8.90;93.60;;;;;;5134748;27;20039;-76
2022/12/25 05:23:03;;;;;;;1.35;0.70;;;8.80;93.60;;;;;;5101155;28;20054;-76
2022/12/25 05:25:28;;;;;;;1.13;0.35;;;8.80;93.60;;;;;;5118274;28;20063;-76
2022/12/25 05:27:54;;;;;;;1.05;0.50;;;8.80;93.60;;;;;;5136457;28;20402;-76
2022/12/25 05:30:20;;;;;;;0.57;0.55;;;8.70;93.60;;;;;;5118635;28;20375;-76
2022/12/25 05:32:46;;;;;;;0.82;0.50;;;8.70;93.90;;;;;;5100957;28;20039;-76
2022/12/25 05:35:12;;;;;;;0.57;0.40;;;8.70;93.70;;;;;;5136463;28;20165;-76
2022/12/25 05:37:38;;;;;;;0.38;0.38;;;8.60;93.70;;;;;;5101000;28;20100;-76
2022/12/25 05:40:04;;;;;;;0.65;0.57;;;8.60;93.70;;;;;;5117845;28;20508;-76
2022/12/25 05:42:30;;;;;;;0.40;0.40;;;8.60;93.70;;;;;;5136104;28;20088;-76
2022/12/25 05:44:56;;;;;;;1.40;0.40;;;8.50;93.80;;;;;;5136332;28;20039;-76
2022/12/25 05:47:22;;;;;;;1.02;0.50;;;8.40;93.80;;;;;;5136347;28;20047;-77
2022/12/25 05:49:47;;;;;;;0.77;0.35;;;8.40;93.80;;;;;;5117881;28;20043;-77
2022/12/25 05:52:13;;;;;;;0.85;0.30;;;8.30;93.80;;;;;;5117679;28;20125;-76
2022/12/25 05:54:39;;;;;;;0.55;0.40;;;8.40;93.90;;;;;;5136445;28;20035;-76
2022/12/25 05:57:04;;;;;;;0.50;0.50;;;8.30;93.90;;;;;;5136350;28;20134;-76
2022/12/25 05:59:32;;;;;;;0.75;0.40;;;8.30;93.90;;;;;;5117689;28;20043;-76
2022/12/25 06:01:58;;;;;;;0.30;0.30;;;8.20;93.90;;;;;;5136114;28;20122;-76
2022/12/25 06:04:24;;;;;;;0.30;0.30;;;8.20;93.90;;;;;;5136303;28;20077;-76
2022/12/25 06:06:49;;;;;;;0.80;0.40;;;8.20;93.90;;;;;;5117610;28;20577;-76
2022/12/25 06:09:15;;;;;;;0.40;0.40;;;8.10;93.90;;;;;;5117600;28;20129;-76
2022/12/25 06:11:41;;;;;;;0.50;0.50;;;8.10;93.90;;;;;;5117405;28;20039;-76
2022/12/25 06:14:10;;;;;;;0.85;0.35;;;8.10;94.00;;;;;;5135850;28;20043;-76
2022/12/25 06:16:35;;;;;;;0.70;0.40;;;8.00;94.00;;;;;;5117291;28;20039;-76
2022/12/25 06:19:01;;;;;;;0.40;0.40;;;8.00;94.00;;;;;;5117374;28;20047;-76
2022/12/25 06:21:26;;;;;;;0.30;0.30;;;8.00;94.00;;;;;;5100256;28;20035;-76
2022/12/25 06:23:52;;;;;;;0.32;0.32;;;7.90;94.00;;;;;;5100132;28;20050;-76
2022/12/25 06:26:18;;;;;;;1.08;0.50;;;7.90;94.00;;;;;;5100194;28;20046;-76
2022/12/25 06:28:45;;;;;;;1.75;0.40;;;7.90;94.30;;;;;;5100079;28;20520;-76
2022/12/25 06:31:13;;;;;;;0.43;0.40;;;7.90;94.10;;;;;;5116397;28;20054;-76
2022/12/25 06:33:40;;;;;;;0.50;0.40;;;7.90;94.10;;;;;;5116644;28;20047;-77
2022/12/25 06:36:10;;;;;;;0.60;0.43;;;7.90;94.00;;;;;;5117066;28;20031;-76
2022/12/25 06:38:35;;;;;;;1.13;0.50;;;7.90;94.00;;;;;;5116949;28;20062;-77
2022/12/25 06:41:07;;;;;;;0.52;0.50;;;7.90;94.00;;;;;;5135536;28;20039;-76
2022/12/25 06:43:33;;;;;;;0.57;0.40;;;7.90;94.00;;;;;;5136001;28;20058;-76
2022/12/25 06:46:04;;;;;;;0.45;0.40;;;8.10;94.00;;;;;;5135428;28;20175;-76
2022/12/25 06:48:32;;;;;;;0.45;0.30;;;8.00;94.00;;;;;;5135813;28;20051;-76
2022/12/25 06:50:58;;;;;;;0.32;0.32;;;8.00;94.00;;;;;;5135021;28;20055;-76
2022/12/25 06:53:23;;;;;;;0.90;0.50;;;8.00;93.90;;;;;;5117349;28;20097;-76
2022/12/25 06:55:49;;;;;;;0.32;0.32;;;8.00;93.90;;;;;;5135395;28;20039;-77
2022/12/25 06:58:14;;;;;;;0.40;0.40;;;8.00;93.90;;;;;;5135572;28;20103;-76
2022/12/25 07:00:40;;;;;;;1.00;0.52;;;8.00;93.90;;;;;;5116635;28;20049;-76
2022/12/25 07:03:06;;;;;;;0.47;0.47;;;8.00;93.90;;;;;;5116926;28;20550;-76
2022/12/25 07:05:31;;;;;;;0.40;0.40;;;8.00;93.90;;;;;;5134987;28;20485;-76
2022/12/25 07:07:57;;;;;;;0.40;0.30;;;8.10;93.90;;;;;;5099315;28;20042;-76
2022/12/25 07:10:23;;;;;;;0.77;0.50;;;8.10;93.90;;;;;;5116431;28;20137;-76
2022/12/25 07:12:48;;;;;;;0.47;0.47;;;8.10;93.90;;;;;;5135150;28;20050;-76
2022/12/25 07:15:14;;;;;;;0.95;0.50;;;8.20;93.90;;;;;;5116625;28;20482;-76
2022/12/25 07:17:39;;;;;;;0.40;0.40;;;8.10;93.80;;;;;;5116426;28;20046;-76
2022/12/25 07:20:06;;;;;;;0.73;0.50;;;8.10;93.80;;;;;;5082326;28;20430;-76
2022/12/25 07:22:31;;;;;;;1.20;0.50;;;8.20;93.80;;;;;;5116965;28;20466;-76
2022/12/25 07:24:57;;;;;;;0.63;0.55;;;8.20;93.80;;;;;;5135038;28;20039;-76
2022/12/25 07:27:23;;;;;;;0.47;0.47;;;8.20;93.80;;;;;;5134980;28;20042;-76
2022/12/25 07:29:48;;;;;;;0.40;0.40;;;8.20;93.80;;;;;;5116555;28;20450;-76
2022/12/25 07:32:14;;;;;;;0.65;0.57;;;8.30;93.80;;;;;;5134230;28;20160;-76
2022/12/25 07:34:40;;;;;;;0.40;0.40;;;8.30;93.70;;;;;;5116005;28;20134;-76
2022/12/25 07:37:05;;;;;;;0.40;0.40;;;8.20;93.70;;;;;;5134455;28;20035;-76
2022/12/25 07:39:34;;;;;;;0.57;0.52;;;8.30;93.70;;;;;;5116320;28;20066;-76
2022/12/25 07:41:59;;;;;;;0.30;0.30;;;8.40;93.70;;;;;;5134999;28;20051;-76
2022/12/25 07:44:25;;;;;;;1.15;0.50;;;8.40;93.70;;;;;;5116032;28;20521;-76
2022/12/25 07:46:51;;;;;;;0.65;0.50;;;8.40;93.70;;;;;;5132886;28;20482;-76
2022/12/25 07:49:16;;;;;;;1.23;0.52;;;8.40;93.70;;;;;;5099069;28;20055;-76
2022/12/25 07:51:42;;;;;;;0.43;0.43;;;8.40;93.70;;;;;;5134519;28;20039;-76
2022/12/25 07:54:07;;;;;;;0.40;0.40;;;8.50;93.70;;;;;;5134117;28;20047;-77
2022/12/25 07:56:33;;;;;;;0.80;0.45;;;8.50;93.70;;;;;;5134248;28;20039;-76
2022/12/25 07:58:59;;;;;;;0.73;0.60;;;8.50;93.70;;;;;;5116312;28;20487;-76
2022/12/25 08:01:26;;;;;;;0.73;0.40;;;8.50;93.70;;;;;;5098805;28;20035;-76
2022/12/25 08:03:54;;;;;;;0.30;0.30;;;8.50;93.70;;;;;;5116086;28;20046;-76
2022/12/25 08:06:21;;;;;;;0.45;0.32;;;8.50;93.70;;;;;;5098820;28;20051;-76
2022/12/25 08:08:47;;;;;;;1.13;0.40;;;8.50;93.70;;;;;;5115579;28;20046;-76
2022/12/25 08:11:13;;;;;;;0.40;0.40;;;8.50;93.70;;;;;;5115655;28;20035;-76
2022/12/25 08:13:39;;;;;;;0.40;0.40;;;8.60;93.70;;;;;;5115636;28;20035;-76
2022/12/25 08:16:08;;;;;;;0.75;0.30;;;8.70;93.70;;;;;;5133873;28;20122;-76
2022/12/25 08:18:35;;;;;;;0.40;0.40;;;8.60;93.70;;;;;;5134494;28;20153;-76
2022/12/25 08:21:03;;;;;;;1.15;0.57;;;8.60;93.60;;;;;;5134331;28;20035;-76
2022/12/25 08:23:29;;;;;;;0.52;0.50;;;8.60;93.60;;;;;;5115984;28;20508;-76
2022/12/25 08:25:59;;;;;;;0.55;0.43;;;8.60;93.60;;;;;;5115390;28;20047;-76
2022/12/25 08:28:25;;;;;;;0.38;0.38;;;8.70;93.60;;;;;;5133709;28;20142;-76
2022/12/25 08:30:50;;;;;;;0.47;0.47;;;8.70;93.60;;;;;;5115569;28;20492;-76
2022/12/25 08:33:16;;;;;;;0.50;0.40;;;8.70;93.70;;;;;;5133512;28;20450;-76
2022/12/25 08:35:41;;;;;;;0.45;0.40;;;8.70;93.60;;;;;;5133858;28;20099;-76
2022/12/25 08:38:07;;;;;;;0.28;0.28;;;8.70;93.60;;;;;;5133545;28;20180;-76
2022/12/25 08:40:33;;;;;;;0.70;0.40;;;8.70;93.60;;;;;;5133949;28;20046;-76
2022/12/25 08:42:58;;;;;;;0.90;0.55;;;8.70;93.60;;;;;;5115125;28;20067;-76
2022/12/25 08:45:24;;;;;;;0.60;0.40;;;8.70;93.60;;;;;;5114946;28;20054;-76
2022/12/25 08:47:54;;;;;;;0.40;0.40;;;8.80;93.60;;;;;;5114846;28;20053;-76
2022/12/25 08:50:22;;;;;;;0.30;0.30;;;8.80;93.60;;;;;;5114802;28;20039;-76
2022/12/25 08:52:48;;;;;;;0.35;0.30;;;8.80;93.60;;;;;;5133673;28;20063;-76
2022/12/25 08:55:13;;;;;;;0.40;0.40;;;8.80;93.60;;;;;;5132717;27;20494;-76
2022/12/25 08:57:39;;;;;;;0.32;0.30;;;8.80;93.60;;;;;;5098034;28;20039;-76
2022/12/25 09:00:05;;;;;;;0.65;0.47;;;8.90;93.60;;;;;;5097886;28;20122;-76
2022/12/25 09:02:31;;;;;;;0.50;0.38;;;8.80;93.60;;;;;;5133664;28;20142;-76
2022/12/25 09:04:57;;;;;;;0.60;0.40;;;8.90;93.60;;;;;;5097574;28;20070;-76
2022/12/25 09:07:22;;;;;;;0.82;0.40;;;8.90;93.60;;;;;;5114683;28;20474;-76
2022/12/25 09:09:48;;;;;;;0.40;0.40;;;8.90;93.60;;;;;;5114713;28;20047;-76
2022/12/25 09:12:13;;;;;;;0.68;0.50;;;8.90;93.60;;;;;;5114599;28;20041;-76
2022/12/25 09:14:39;;;;;;;0.50;0.47;;;8.90;93.60;;;;;;5133485;28;20047;-76
2022/12/25 09:17:05;;;;;;;0.60;0.43;;;8.90;93.60;;;;;;5098243;28;20398;-77
2022/12/25 09:19:31;;;;;;;0.40;0.40;;;9.00;93.60;;;;;;5114786;28;20031;-76
2022/12/25 09:21:56;;;;;;;0.40;0.40;;;8.90;93.60;;;;;;5114721;28;20054;-76
2022/12/25 09:24:22;;;;;;;0.70;0.50;;;9.00;93.60;;;;;;5132941;28;20043;-76
2022/12/25 09:26:47;;;;;;;0.35;0.35;;;8.90;93.60;;;;;;5115295;28;20039;-76
2022/12/25 09:29:15;;;;;;;0.95;0.50;;;9.00;93.60;;;;;;5133400;28;20085;-76
2022/12/25 09:31:41;;;;;;;0.40;0.40;;;9.00;93.60;;;;;;5114957;28;20050;-76
2022/12/25 09:34:08;;;;;;;0.40;0.40;;;9.00;93.60;;;;;;5097301;28;20075;-76
2022/12/25 09:36:34;;;;;;;0.32;0.25;;;9.10;93.60;;;;;;5114567;28;20457;-75
2022/12/25 09:39:00;;;;;;;0.43;0.43;;;9.00;93.60;;;;;;5114437;28;20082;-76
2022/12/25 09:41:32;;;;;;;0.50;0.32;;;9.10;93.60;;;;;;5115068;28;20093;-76
2022/12/25 09:44:12;;;;;;;0.63;0.30;;;9.00;93.60;;;;;;5114321;28;20043;-76
2022/12/25 09:46:43;;;;;;;0.40;0.40;;;9.10;93.60;;;;;;5114211;28;20050;-76
2022/12/25 09:49:31;;;;;;;0.52;0.38;;;9.10;93.60;;;;;;5132574;28;20074;-76
2022/12/25 09:52:03;;;;;;;0.40;0.40;;;9.10;93.60;;;;;;5113989;28;20053;-76
2022/12/25 09:54:59;;;;;;;0.40;0.40;;;9.10;93.60;;;;;;5097771;28;20137;-76
2022/12/25 09:57:25;;;;;;;0.30;0.20;;;9.10;93.50;;;;;;5114286;28;20566;-76
2022/12/25 09:59:54;;;;;;;0.45;0.30;;;9.10;93.50;;;;;;5097201;28;20423;-76
2022/12/25 10:02:46;;;;;;;0.30;0.30;;;9.20;93.60;;;;;;5097457;28;20039;-76
2022/12/25 10:05:43;;;;;;;0.77;0.50;;;9.20;93.60;;;;;;5113791;28;20525;-75
2022/12/25 10:08:30;;;;;;;0.20;0.20;;;9.20;93.60;;;;;;5103782;28;20059;-75
2022/12/25 10:11:16;;;;;;;0.30;0.30;;;9.20;93.60;;;;;;5119242;28;20049;-74
2022/12/25 10:14:08;;;;;;;0.28;0.28;;;9.20;93.60;;;;;;5136046;28;20043;-75
2022/12/25 10:16:59;;;;;;;0.30;0.30;;;9.20;93.50;;;;;;5117259;28;20088;-76
2022/12/25 10:19:51;;;;;;;0.25;0.22;;;9.20;93.50;;;;;;5120328;28;20104;-75
2022/12/25 10:22:34;;;;;;;0.65;0.30;;;9.30;93.50;;;;;;5103066;28;20463;-76
2022/12/25 10:25:02;;;;;;;0.40;0.30;;;9.30;93.50;;;;;;5117372;28;20050;-76
2022/12/25 10:27:32;;;;;;;0.32;0.32;;;9.40;93.50;;;;;;5135493;28;20071;-75
2022/12/25 10:30:00;;;;;;;0.20;0.20;;;9.30;93.50;;;;;;5135447;28;20046;-75
2022/12/25 10:32:26;;;;;;;0.20;0.20;;;9.40;93.50;;;;;;5117339;28;20039;-75
2022/12/25 10:34:52;;;;;;;0.20;0.20;;;9.30;93.50;;;;;;5083114;28;20038;-75
2022/12/25 10:37:18;;;;;;;0.40;0.30;;;9.40;93.80;;;;;;5100195;28;20054;-74
2022/12/25 10:39:43;;;;;;;0.60;0.43;;;9.40;93.50;;;;;;5083164;28;20046;-76
2022/12/25 10:42:27;;;;;;;0.40;0.30;;;9.40;93.50;;;;;;5117361;28;20082;-74
2022/12/25 10:44:59;;;;;;;0.20;0.20;;;9.40;93.50;;;;;;5116883;28;20039;-75
2022/12/25 10:47:29;;;;;;;0.30;0.30;;;9.40;93.50;;;;;;5116775;28;20112;-75
2022/12/25 10:49:56;;;;;;;0.32;0.30;;;9.30;93.50;;;;;;5100004;28;20122;-76
2022/12/25 10:52:25;;;;;;;0.30;0.30;;;9.40;93.60;;;;;;5117008;28;20055;-77
2022/12/25 10:54:51;;;;;;;0.30;0.30;;;9.40;93.60;;;;;;5086929;28;20035;-78
2022/12/25 10:57:20;;;;;;;0.47;0.47;;;9.40;93.60;;;;;;5103857;28;20039;-77
2022/12/25 10:59:49;;;;;;;0.50;0.30;;;9.40;93.60;;;;;;5117151;28;20090;-77
2022/12/25 11:02:37;;;;;;;0.28;0.28;;;9.40;93.60;;;;;;5117800;28;20490;-76
2022/12/25 11:05:09;;;;;;;0.55;0.30;;;9.40;93.60;;;;;;5135581;28;20101;-76
2022/12/25 11:07:45;;;;;;;;;;;9.40;93.60;;;;;;5100450;28;20527;-76
2022/12/25 11:10:26;;;;;;;0.20;0.20;;;9.40;93.60;;;;;;5116852;28;19912;-76
2022/12/25 11:12:53;;;;;;;0.30;0.30;;;9.60;93.60;;;;;;5135170;28;20096;-75
2022/12/25 11:15:31;;;;;;;0.30;0.30;;;9.40;93.60;;;;;;5116376;28;20055;-76
2022/12/25 11:17:57;;;;;;;0.30;0.30;;;9.40;93.60;;;;;;5100082;28;20064;-76
2022/12/25 11:20:23;;;;;;;0.40;0.40;;;9.40;93.60;;;;;;5116900;28;20047;-76
2022/12/25 11:22:49;;;;;;;0.40;0.40;;;9.40;93.60;;;;;;5099753;28;20035;-76
2022/12/25 11:25:26;;;;;;;0.88;0.50;;;9.30;93.60;;;;;;5116504;28;20043;-77
2022/12/25 11:28:10;;;;;;;0.30;0.30;;;9.50;93.70;;;;;;5100183;28;20054;-76
2022/12/25 11:30:38;;;;;;;0.30;0.30;;;9.40;93.60;;;;;;5117032;28;20177;-76
2022/12/25 11:33:10;;;;;;;0.70;0.40;;;9.40;93.60;;;;;;5087006;28;20047;-76
2022/12/25 11:35:46;;;;;;;0.95;0.55;;;9.40;93.60;;;;;;5089474;28;20027;-76
2022/12/25 11:38:12;;;;;;;0.95;0.50;;;9.60;93.70;;;;;;5102176;28;20039;-76
2022/12/25 11:40:49;;;;;;;0.57;0.57;;;9.50;93.60;;;;;;5099535;28;20091;-76
2022/12/25 11:43:31;;;;;;;0.60;0.40;;;9.40;93.90;;;;;;5137956;28;20053;-76
2022/12/25 11:46:10;;;;;;;;;;;9.50;93.70;;;;;;5085671;28;20035;-76
2022/12/25 11:48:42;;;;;;;0.30;0.30;;;9.60;93.70;;;;;;5120371;28;20281;-76
2022/12/25 11:51:09;;;;;;;0.30;0.30;;;9.60;93.60;;;;;;5116736;28;20096;-76
2022/12/25 11:53:45;;;;;;;0.95;0.30;;;9.50;93.60;;;;;;5100157;28;20043;-76
2022/12/25 11:56:17;;;;;;;1.10;0.40;;;9.50;93.60;;;;;;5116463;28;20054;-78
2022/12/25 11:58:50;;;;;;;0.30;0.30;;;9.50;93.60;;;;;;5098799;28;20482;-76
2022/12/25 12:01:33;;;;;;;0.30;0.30;;;9.50;93.60;;;;;;5082690;28;20032;-76
2022/12/25 12:04:01;;;;;;;0.40;0.40;;;9.50;93.70;;;;;;5134317;28;20091;-76
2022/12/25 12:06:38;;;;;;;0.52;0.40;;;9.50;93.70;;;;;;5099057;28;20041;-76
2022/12/25 12:09:31;;;;;;;0.40;0.40;;;9.60;93.70;;;;;;5098700;28;20050;-76
2022/12/25 12:12:07;;;;;;;0.52;0.50;;;9.50;93.60;;;;;;5115530;28;20051;-76
2022/12/25 12:14:46;;;;;;;0.52;0.47;;;9.60;93.60;;;;;;5134373;28;20466;-76
2022/12/25 12:17:13;;;;;;;0.40;0.40;;;9.70;93.60;;;;;;5115603;28;20104;-76
2022/12/25 12:19:40;;;;;;;0.32;0.30;;;9.70;93.60;;;;;;5098475;28;20130;-76
2022/12/25 12:22:14;;;;;;;0.57;0.40;;;9.70;93.60;;;;;;5115336;28;20405;-76
2022/12/25 12:24:42;;;;;;;0.63;0.50;;;9.80;93.60;;;;;;5116605;28;20551;-76
2022/12/25 12:27:30;;;;;;;0.98;0.57;;;9.70;93.60;;;;;;5133729;28;20077;-76
2022/12/25 12:29:58;;;;;;;0.40;0.40;;;9.70;93.60;;;;;;5114181;28;20096;-76
2022/12/25 12:32:34;;;;;;;0.40;0.40;;;9.70;93.60;;;;;;5115154;28;20039;-76
2022/12/25 12:35:07;;;;;;;0.30;0.30;;;9.80;93.60;;;;;;5133568;28;20038;-76
2022/12/25 12:37:36;;;;;;;0.40;0.40;;;9.80;93.60;;;;;;5134024;28;20043;-76
2022/12/25 12:40:02;;;;;;;0.20;0.20;;;9.80;93.60;;;;;;5115008;28;20421;-76
2022/12/25 12:42:31;;;;;;;0.40;0.40;;;9.70;93.60;;;;;;5115253;28;20126;-76
2022/12/25 12:45:09;;;;;;;0.40;0.40;;;9.80;93.60;;;;;;5133162;28;20387;-76
2022/12/25 12:47:42;;;;;;;0.85;0.40;;;9.70;93.60;;;;;;5115788;28;20134;-76
2022/12/25 12:50:28;;;;;;;0.82;0.40;;;9.90;93.70;;;;;;5098369;28;20119;-76
2022/12/25 12:52:53;;;;;;;0.20;0.20;;;9.70;93.60;;;;;;5114965;28;20125;-76
2022/12/25 12:55:34;;;;;;;0.70;0.40;;;9.80;93.70;;;;;;5133735;28;20034;-76
2022/12/25 12:58:03;;;;;;;0.52;0.30;;;9.80;93.70;;;;;;5133478;28;20042;-75
2022/12/25 13:00:43;;;;;;;0.35;0.30;;;9.80;93.70;;;;;;5133081;28;20034;-75
2022/12/25 13:03:39;;;;;;;0.73;0.50;;;9.80;93.70;;;;;;5115408;28;20054;-76
2022/12/25 13:06:16;;;;;;;0.85;0.57;;;9.90;93.70;;;;;;5118567;28;20043;-76
2022/12/25 13:09:08;;;;;;;0.35;0.30;;;9.80;93.70;;;;;;5101534;28;20131;-76
2022/12/25 13:11:39;;;;;;;0.40;0.40;;;9.80;93.70;;;;;;5086806;28;20082;-76
2022/12/25 13:14:05;;;;;;;0.93;0.50;;;9.80;93.70;;;;;;5134477;28;20115;-76
2022/12/25 13:16:35;;;;;;;0.35;0.35;;;9.80;93.80;;;;;;5114804;28;20043;-77
2022/12/25 13:19:11;;;;;;;0.35;0.30;;;9.80;93.70;;;;;;5115044;28;20440;-77
2022/12/25 13:21:37;;;;;;;0.40;0.40;;;9.80;93.70;;;;;;5097510;28;20047;-77
2022/12/25 13:24:07;;;;;;;0.55;0.45;;;9.80;94.00;;;;;;5133354;28;20046;-77
2022/12/25 13:26:34;;;;;;;0.30;0.30;;;9.80;93.70;;;;;;5115167;28;20031;-77
2022/12/25 13:28:59;;;;;;;0.57;0.40;;;9.80;93.70;;;;;;5114408;28;20039;-77
2022/12/25 13:31:28;;;;;;;0.55;0.38;;;9.70;93.70;;;;;;5115006;28;20100;-77
2022/12/25 13:34:19;;;;;;;0.45;0.45;;;9.80;93.70;;;;;;5133256;28;20092;-77
2022/12/25 13:36:44;;;;;;;0.35;0.28;;;9.80;93.80;;;;;;5114410;28;20062;-77
2022/12/25 13:39:15;;;;;;;0.57;0.50;;;9.80;93.80;;;;;;5133278;28;20082;-77
2022/12/25 13:44:40;;;;;;;0.40;0.40;;;9.90;93.80;;;;;;5120914;28;20070;-76
2022/12/25 13:47:23;;;;;;;0.95;0.50;;;9.90;93.80;;;;;;5117881;28;20051;-76
2022/12/25 13:49:50;;;;;;;0.57;0.50;;;9.80;93.80;;;;;;5100559;28;20043;-76
2022/12/25 13:52:22;;;;;;;0.65;0.50;;;9.80;93.70;;;;;;5136427;28;20470;-76
2022/12/25 13:54:53;;;;;;;0.63;0.50;;;9.80;93.70;;;;;;5101037;28;20043;-76
2022/12/25 13:57:20;;;;;;;0.88;0.50;;;9.80;93.70;;;;;;5136252;28;20035;-77
2022/12/25 13:59:45;;;;;;;0.50;0.50;;;9.80;93.80;;;;;;5117685;28;20038;-76
2022/12/25 14:02:25;;;;;;;0.82;0.60;;;9.90;93.80;;;;;;5135857;28;20039;-77
2022/12/25 14:04:51;;;;;;;0.77;0.63;;;9.80;93.80;;;;;;5136068;28;20039;-77
2022/12/25 14:07:24;;;;;;;0.50;0.50;;;9.90;93.80;;;;;;5136086;28;20050;-77
2022/12/25 14:10:02;;;;;;;0.60;0.60;;;9.80;93.80;;;;;;5135956;28;20089;-76
2022/12/25 14:12:30;;;;;;;0.40;0.40;;;9.80;93.80;;;;;;5135565;28;20119;-76
2022/12/25 14:14:57;;;;;;;0.45;0.45;;;9.80;93.80;;;;;;5100382;28;20157;-76
2022/12/25 14:17:23;;;;;;;0.60;0.47;;;9.70;93.80;;;;;;5135553;28;20100;-77
2022/12/25 14:19:58;;;;;;;1.10;0.68;;;9.80;93.80;;;;;;5135661;28;20036;-77
2022/12/25 14:22:25;;;;;;;1.02;0.57;;;9.80;93.80;;;;;;5117059;28;20049;-76
2022/12/25 14:24:51;;;;;;;0.60;0.30;;;9.80;93.80;;;;;;5100407;28;20498;-76
2022/12/25 14:27:26;;;;;;;0.65;0.50;;;9.80;93.80;;;;;;5117005;28;20433;-77
2022/12/25 14:29:55;;;;;;;0.50;0.43;;;9.80;93.80;;;;;;5117046;28;20087;-76
2022/12/25 14:32:24;;;;;;;0.55;0.52;;;9.90;93.80;;;;;;5116984;28;20169;-76
2022/12/25 14:34:54;;;;;;;0.60;0.60;;;9.90;93.80;;;;;;5135674;28;20043;-77
2022/12/25 14:37:23;;;;;;;0.50;0.50;;;9.90;93.80;;;;;;5135332;28;20050;-77
2022/12/25 14:40:03;;;;;;;0.50;0.50;;;9.90;93.80;;;;;;5135516;28;20490;-76
2022/12/25 14:42:32;;;;;;;0.43;0.43;;;9.90;93.80;;;;;;5116938;28;20129;-76
2022/12/25 14:45:19;;;;;;;0.52;0.50;;;9.90;93.80;;;;;;5083144;28;20043;-76
2022/12/25 14:47:54;;;;;;;0.52;0.52;;;9.80;93.80;;;;;;5135354;28;20088;-77
2022/12/25 14:50:41;;;;;;;0.80;0.60;;;9.80;93.80;;;;;;5135052;28;20035;-76
2022/12/25 14:53:22;;;;;;;0.43;0.40;;;9.90;93.90;;;;;;5134256;27;20547;-76
2022/12/25 14:55:50;;;;;;;0.50;0.50;;;9.80;93.80;;;;;;5135579;28;20054;-76
2022/12/25 14:58:21;;;;;;;0.50;0.50;;;9.80;93.80;;;;;;5116687;28;20035;-76